Time;durP1;ratioP1;P1;durP2;ratioP2;P2;SDS_P1;SDS_P2;PMS_P1;PMS_P2;Temp;Humidity;BMP_temperature;BMP_pressure;BME280_temperature;BME280_humidity;BME280_pressure;Samples;Min_cycle;Max_cycle;Signal;HPM_P1;HPM_P2
2021/06/14 00:01:06;;;;;;;4.13;2.80;;;14.20;26.80;;;;;;5071500;28;20419;-73
2021/06/14 00:03:31;;;;;;;2.80;2.60;;;14.20;27.40;;;;;;5071678;28;20266;-73
2021/06/14 00:05:57;;;;;;;3.63;3.33;;;14.10;28.00;;;;;;5070563;28;20198;-72
2021/06/14 00:08:24;;;;;;;3.40;3.10;;;14.10;26.80;;;;;;5071163;28;20178;-72
2021/06/14 00:10:54;;;;;;;5.10;3.50;;;14.00;27.50;;;;;;5071357;28;20178;-72
2021/06/14 00:13:20;;;;;;;3.97;3.57;;;14.10;27.70;;;;;;5071576;28;20454;-72
2021/06/14 00:15:46;;;;;;;4.73;3.30;;;14.00;26.90;;;;;;5071723;28;20408;-72
2021/06/14 00:18:14;;;;;;;3.73;2.93;;;14.00;26.90;;;;;;5071344;28;20460;-72
2021/06/14 00:20:41;;;;;;;3.90;3.50;;;13.90;27.20;;;;;;5071156;28;20776;-72
2021/06/14 00:23:09;;;;;;;2.87;2.67;;;13.90;27.30;;;;;;5071608;28;20428;-72
2021/06/14 00:25:36;;;;;;;5.20;3.70;;;13.90;28.90;;;;;;5071267;28;20909;-72
2021/06/14 00:28:02;;;;;;;4.20;3.17;;;14.00;28.00;;;;;;5071378;28;20504;-72
2021/06/14 00:30:31;;;;;;;4.20;3.80;;;14.10;28.00;;;;;;5070716;28;20432;-72
2021/06/14 00:32:57;;;;;;;3.37;2.60;;;14.00;28.00;;;;;;5069963;28;20475;-72
2021/06/14 00:35:22;;;;;;;5.30;4.07;;;14.10;28.90;;;;;;5070808;28;21011;-73
2021/06/14 00:37:48;;;;;;;4.03;3.70;;;14.10;27.60;;;;;;5071107;28;20309;-72
2021/06/14 00:40:14;;;;;;;7.80;4.07;;;14.00;28.10;;;;;;5071162;28;20185;-72
2021/06/14 00:42:40;;;;;;;3.60;3.10;;;13.90;27.80;;;;;;5071169;28;20431;-72
2021/06/14 00:45:09;;;;;;;3.10;2.90;;;13.80;27.50;;;;;;5071188;28;20772;-73
2021/06/14 00:47:35;;;;;;;2.60;2.40;;;13.70;27.90;;;;;;5069929;28;20182;-72
2021/06/14 00:50:00;;;;;;;3.67;3.33;;;13.80;29.20;;;;;;5070876;28;20808;-72
2021/06/14 00:52:26;;;;;;;3.37;3.17;;;13.80;28.50;;;;;;5069774;28;20209;-72
2021/06/14 00:54:52;;;;;;;3.53;3.20;;;13.90;28.60;;;;;;5071122;28;20169;-72
2021/06/14 00:57:17;;;;;;;3.90;3.60;;;13.90;27.50;;;;;;5070928;28;20201;-72
2021/06/14 00:59:43;;;;;;;3.00;2.80;;;13.70;27.70;;;;;;5069394;28;20174;-72
2021/06/14 01:02:09;;;;;;;3.60;3.23;;;13.70;28.00;;;;;;5069599;28;20201;-73
2021/06/14 01:04:34;;;;;;;3.97;3.60;;;13.70;28.00;;;;;;5069314;28;20439;-72
2021/06/14 01:07:00;;;;;;;4.07;2.93;;;13.60;28.00;;;;;;5069416;28;20178;-72
2021/06/14 01:09:25;;;;;;;3.90;2.77;;;13.60;28.70;;;;;;5070571;28;20181;-72
2021/06/14 01:12:08;;;;;;;5.50;3.07;;;13.50;29.20;;;;;;5070770;28;20185;-72
2021/06/14 01:14:59;;;;;;;3.87;3.07;;;13.50;29.20;;;;;;5070810;28;20540;-72
2021/06/14 01:17:35;;;;;;;3.33;2.60;;;13.50;29.20;;;;;;5069246;28;20851;-72
2021/06/14 01:20:52;;;;;;;3.33;3.03;;;13.50;28.80;;;;;;5069523;28;20812;-72
2021/06/14 01:23:41;;;;;;;3.03;2.83;;;13.50;28.70;;;;;;5051501;28;20945;-72
2021/06/14 01:26:16;;;;;;;4.83;3.07;;;13.40;28.90;;;;;;5075249;28;20400;-72
2021/06/14 01:28:44;;;;;;;12.77;3.67;;;13.40;29.10;;;;;;5073433;28;20423;-72
2021/06/14 01:31:10;;;;;;;3.67;3.37;;;13.30;29.00;;;;;;5074569;28;20533;-72
2021/06/14 01:33:36;;;;;;;4.20;3.90;;;13.30;29.40;;;;;;5073296;28;20438;-72
2021/06/14 01:36:04;;;;;;;4.07;2.97;;;13.20;29.60;;;;;;5075125;28;20414;-72
2021/06/14 01:38:31;;;;;;;5.93;3.23;;;13.20;30.00;;;;;;5074985;28;20558;-72
2021/06/14 01:41:02;;;;;;;5.60;3.27;;;13.10;30.60;;;;;;5074251;28;20411;-72
2021/06/14 01:43:31;;;;;;;4.13;3.10;;;13.10;31.20;;;;;;5074493;28;20511;-72
2021/06/14 01:46:14;;;;;;;3.20;2.90;;;13.00;31.40;;;;;;5073026;28;20430;-72
2021/06/14 01:48:42;;;;;;;3.30;2.97;;;13.10;32.80;;;;;;5074462;28;20407;-72
2021/06/14 01:51:09;;;;;;;3.67;3.37;;;13.20;33.40;;;;;;5074150;28;20416;-73
2021/06/14 01:53:35;;;;;;;3.97;3.57;;;13.10;32.40;;;;;;5073642;28;20449;-72
2021/06/14 01:56:01;;;;;;;3.47;3.17;;;13.10;33.70;;;;;;5074355;28;20919;-72
2021/06/14 01:58:30;;;;;;;4.80;4.40;;;13.20;33.30;;;;;;5073988;28;20553;-72
2021/06/14 02:00:56;;;;;;;3.87;3.00;;;13.10;32.80;;;;;;5073715;28;20427;-72
2021/06/14 02:03:22;;;;;;;3.33;3.03;;;13.10;33.70;;;;;;5072570;28;20987;-72
2021/06/14 02:05:49;;;;;;;4.40;3.53;;;13.00;33.20;;;;;;5074249;28;20892;-72
2021/06/14 02:08:17;;;;;;;6.37;3.03;;;13.00;33.60;;;;;;5074104;28;20415;-72
2021/06/14 02:10:44;;;;;;;6.53;3.23;;;13.00;33.60;;;;;;5073940;28;20415;-72
2021/06/14 02:13:12;;;;;;;4.17;3.80;;;12.90;33.50;;;;;;5073826;28;20426;-72
2021/06/14 02:15:37;;;;;;;7.10;3.90;;;12.90;33.70;;;;;;5072401;28;20951;-72
2021/06/14 02:18:03;;;;;;;4.27;3.80;;;12.90;33.60;;;;;;5073702;28;20494;-72
2021/06/14 02:20:29;;;;;;;4.20;3.60;;;12.80;33.40;;;;;;5072282;28;20207;-72
2021/06/14 02:22:55;;;;;;;3.80;3.10;;;12.80;34.10;;;;;;5072677;28;20908;-72
2021/06/14 02:25:21;;;;;;;3.20;2.90;;;12.80;34.30;;;;;;5073844;28;20407;-72
2021/06/14 02:27:47;;;;;;;4.80;3.30;;;12.80;35.50;;;;;;5073407;28;20939;-72
2021/06/14 02:30:16;;;;;;;4.17;3.77;;;12.80;34.30;;;;;;5073413;28;20419;-72
2021/06/14 02:32:43;;;;;;;8.50;3.23;;;12.70;34.60;;;;;;5072963;28;20284;-72
2021/06/14 02:35:11;;;;;;;3.60;3.30;;;12.70;35.60;;;;;;5073447;28;20789;-72
2021/06/14 02:37:39;;;;;;;4.07;3.40;;;12.80;36.20;;;;;;5073193;28;20466;-72
2021/06/14 02:40:08;;;;;;;3.63;3.30;;;12.70;35.00;;;;;;5072960;28;20416;-72
2021/06/14 02:42:36;;;;;;;14.67;4.70;;;12.60;35.40;;;;;;5071598;28;20448;-72
2021/06/14 02:45:05;;;;;;;4.07;3.63;;;12.60;35.70;;;;;;5073239;28;20848;-72
2021/06/14 02:47:31;;;;;;;3.77;3.47;;;12.50;36.60;;;;;;5073257;28;20553;-72
2021/06/14 02:49:58;;;;;;;4.57;4.10;;;12.50;36.60;;;;;;5072868;28;20911;-72
2021/06/14 02:52:26;;;;;;;4.93;4.30;;;12.50;37.20;;;;;;5071815;28;20424;-72
2021/06/14 02:54:57;;;;;;;3.77;3.47;;;12.50;37.20;;;;;;5072118;28;20970;-72
2021/06/14 02:57:25;;;;;;;5.83;3.67;;;12.50;38.00;;;;;;5072827;28;20455;-72
2021/06/14 02:59:52;;;;;;;4.30;3.83;;;12.50;37.30;;;;;;5071877;28;20489;-72
2021/06/14 03:02:26;;;;;;;4.40;4.00;;;12.50;38.20;;;;;;5072782;28;20938;-72
2021/06/14 03:04:53;;;;;;;4.67;4.20;;;12.50;38.10;;;;;;5073000;28;20415;-72
2021/06/14 03:07:23;;;;;;;4.67;4.00;;;12.50;37.30;;;;;;5073069;28;20414;-72
2021/06/14 03:09:50;;;;;;;4.67;3.60;;;12.50;37.00;;;;;;5071198;28;20427;-73
2021/06/14 03:12:18;;;;;;;4.17;3.70;;;12.50;37.30;;;;;;5072727;28;20782;-73
2021/06/14 03:14:45;;;;;;;3.20;2.90;;;12.50;37.00;;;;;;5072621;28;20410;-72
2021/06/14 03:17:11;;;;;;;4.00;3.70;;;12.40;36.70;;;;;;5072673;28;20542;-73
2021/06/14 03:19:40;;;;;;;6.13;3.77;;;12.40;37.10;;;;;;5071195;28;20878;-73
2021/06/14 03:22:09;;;;;;;5.73;4.10;;;12.30;37.80;;;;;;5071373;28;20413;-72
2021/06/14 03:24:37;;;;;;;4.37;4.00;;;12.40;37.60;;;;;;5072650;28;20476;-72
2021/06/14 03:27:04;;;;;;;3.40;3.10;;;12.40;38.30;;;;;;5072425;28;20903;-72
2021/06/14 03:29:32;;;;;;;4.63;4.23;;;12.40;38.30;;;;;;5072004;28;20470;-72
2021/06/14 03:31:59;;;;;;;4.17;3.60;;;12.40;38.00;;;;;;5072320;28;20506;-72
2021/06/14 03:34:28;;;;;;;8.90;4.00;;;12.40;38.00;;;;;;5072154;28;20431;-72
2021/06/14 03:37:17;;;;;;;5.93;3.93;;;12.30;38.20;;;;;;5070705;28;20458;-72
2021/06/14 03:39:43;;;;;;;4.30;3.97;;;12.40;38.30;;;;;;5071317;28;20796;-72
2021/06/14 03:42:08;;;;;;;7.50;4.43;;;12.40;38.30;;;;;;5072066;28;20404;-72
2021/06/14 03:44:36;;;;;;;4.37;4.03;;;12.40;38.30;;;;;;5069945;28;20587;-72
2021/06/14 03:47:01;;;;;;;4.23;3.80;;;12.30;38.20;;;;;;5070646;28;20267;-72
2021/06/14 03:49:27;;;;;;;5.17;4.70;;;12.30;38.30;;;;;;5070407;28;20488;-72
2021/06/14 03:51:52;;;;;;;4.10;3.70;;;12.30;38.20;;;;;;5071708;28;20185;-72
2021/06/14 03:54:18;;;;;;;6.80;5.37;;;;;;;;;;5071755;28;20197;-72
2021/06/14 03:56:44;;;;;;;4.90;4.40;;;12.40;38.10;;;;;;5070585;28;20209;-72
2021/06/14 03:59:09;;;;;;;6.50;4.23;;;12.40;38.30;;;;;;5062242;28;20432;-72
2021/06/14 04:01:35;;;;;;;5.03;3.87;;;12.40;38.30;;;;;;5050580;28;20181;-72
2021/06/14 04:06:27;;;;;;;4.17;3.87;;;12.40;38.30;;;;;;5054150;28;20184;-69
2021/06/14 04:08:52;;;;;;;4.00;3.60;;;12.40;38.30;;;;;;5083952;28;20177;-69
2021/06/14 04:11:18;;;;;;;4.43;4.03;;;12.40;38.40;;;;;;5051903;28;20408;-68
2021/06/14 04:13:45;;;;;;;4.40;4.00;;;12.50;38.60;;;;;;5051623;28;20251;-68
2021/06/14 04:16:11;;;;;;;4.63;4.10;;;12.60;37.80;;;;;;5051611;28;20184;-69
2021/06/14 04:18:36;;;;;;;4.73;4.33;;;12.50;38.10;;;;;;5063216;28;20573;-68
2021/06/14 04:21:02;;;;;;;6.53;4.50;;;12.50;38.00;;;;;;5071336;28;20608;-68
2021/06/14 04:23:27;;;;;;;10.20;5.03;;;12.60;37.90;;;;;;5071462;28;20681;-69
2021/06/14 04:25:53;;;;;;;6.03;5.43;;;12.60;37.70;;;;;;5071651;28;20661;-68
2021/06/14 04:28:18;;;;;;;4.97;4.43;;;12.60;37.90;;;;;;5071619;28;20226;-68
2021/06/14 04:30:44;;;;;;;5.10;4.60;;;12.60;37.80;;;;;;5069868;28;20617;-69
2021/06/14 04:33:10;;;;;;;5.23;4.53;;;12.70;37.70;;;;;;5071302;28;20288;-69
2021/06/14 04:35:36;;;;;;;6.60;5.10;;;12.70;38.30;;;;;;5070038;28;20209;-70
2021/06/14 04:38:01;;;;;;;8.30;5.40;;;12.80;37.30;;;;;;5071124;28;20451;-69
2021/06/14 04:40:27;;;;;;;9.93;4.77;;;12.80;37.10;;;;;;5067484;28;20189;-68
2021/06/14 04:42:52;;;;;;;7.07;4.97;;;12.90;37.80;;;;;;5051223;28;20194;-68
2021/06/14 04:45:18;;;;;;;10.57;6.27;;;12.90;36.90;;;;;;5060686;28;20184;-68
2021/06/14 04:47:46;;;;;;;6.90;6.20;;;13.00;36.90;;;;;;5071274;28;20185;-70
2021/06/14 04:50:12;;;;;;;6.50;5.43;;;13.10;36.40;;;;;;5071349;28;20203;-69
2021/06/14 04:52:38;;;;;;;7.23;5.03;;;14.30;36.20;;;;;;5071353;28;20441;-70
2021/06/14 04:55:04;;;;;;;5.30;4.43;;;16.60;41.70;;;;;;5070900;28;21156;-72
2021/06/14 04:57:29;;;;;;;5.90;4.60;;;17.80;26.00;;;;;;5069536;28;20228;-71
2021/06/14 04:59:55;;;;;;;4.90;4.30;;;19.20;22.40;;;;;;5070981;28;20416;-71
2021/06/14 05:02:20;;;;;;;5.07;4.67;;;20.90;40.40;;;;;;5071413;28;20614;-70
2021/06/14 05:04:46;;;;;;;6.70;6.20;;;22.30;43.20;;;;;;5071025;28;20241;-71
2021/06/14 05:07:11;;;;;;;6.63;5.57;;;23.50;14.00;;;;;;5071493;28;20205;-70
2021/06/14 05:09:37;;;;;;;6.87;6.47;;;;;;;;;;5070541;28;20169;-71
2021/06/14 05:12:03;;;;;;;7.00;6.50;;;25.10;10.50;;;;;;5070830;28;20181;-70
2021/06/14 05:14:29;;;;;;;8.00;7.30;;;26.10;9.10;;;;;;5070845;28;20432;-72
2021/06/14 05:16:55;;;;;;;6.93;6.47;;;27.10;8.10;;;;;;5070715;28;20463;-71
2021/06/14 05:19:20;;;;;;;7.70;7.20;;;27.80;6.70;;;;;;5071049;28;20221;-70
2021/06/14 05:21:46;;;;;;;7.97;7.57;;;28.50;5.40;;;;;;5071447;28;20189;-71
2021/06/14 05:24:11;;;;;;;8.37;7.97;;;28.70;5.00;;;;;;5070472;28;20200;-71
2021/06/14 05:26:37;;;;;;;10.03;9.43;;;28.50;5.00;;;;;;5070656;28;20180;-71
2021/06/14 05:29:03;;;;;;;10.27;9.67;;;28.70;4.70;;;;;;5070369;28;20662;-71
2021/06/14 05:31:29;;;;;;;11.47;10.30;;;28.80;4.50;;;;;;5069114;28;20697;-71
2021/06/14 05:33:54;;;;;;;11.47;10.97;;;28.70;3.60;;;;;;5070669;28;20456;-71
2021/06/14 05:36:20;;;;;;;12.10;11.30;;;28.20;4.50;;;;;;5070475;28;20257;-71
2021/06/14 05:38:45;;;;;;;11.87;11.30;;;28.70;3.70;;;;;;5069621;28;20255;-72
2021/06/14 05:41:11;;;;;;;13.77;12.97;;;28.90;3.70;;;;;;5070464;28;20205;-71
2021/06/14 05:43:36;;;;;;;13.53;12.83;;;28.70;4.10;;;;;;5069284;28;20655;-71
2021/06/14 05:46:02;;;;;;;14.33;13.60;;;29.20;3.50;;;;;;5070763;28;20185;-72
2021/06/14 05:48:28;;;;;;;14.23;13.63;;;30.00;2.60;;;;;;5070584;28;20231;-72
2021/06/14 05:50:53;;;;;;;14.20;13.50;;;30.60;1.50;;;;;;5070238;28;20181;-72
2021/06/14 05:53:21;;;;;;;14.60;13.90;;;31.00;1.30;;;;;;5069874;28;20216;-72
2021/06/14 05:55:47;;;;;;;15.30;14.43;;;31.30;1.00;;;;;;5070456;28;20249;-71
2021/06/14 05:58:12;;;;;;;15.27;14.67;;;31.10;1.00;;;;;;5066623;28;20550;-72
2021/06/14 06:00:38;;;;;;;16.67;15.87;;;31.20;1.00;;;;;;5048268;28;20186;-72
2021/06/14 06:03:04;;;;;;;16.47;15.77;;;31.70;1.00;;;;;;5049716;28;20648;-72
2021/06/14 06:05:32;;;;;;;16.73;15.83;;;31.50;1.00;;;;;;5050530;28;20183;-72
2021/06/14 06:07:58;;;;;;;17.47;16.67;;;31.20;1.00;;;;;;5053249;28;20624;-72
2021/06/14 06:10:23;;;;;;;17.80;16.80;;;31.10;1.00;;;;;;5052501;28;20573;-72
2021/06/14 06:12:49;;;;;;;18.70;17.70;;;31.20;1.00;;;;;;5053885;28;20179;-74
2021/06/14 06:15:17;;;;;;;18.47;17.60;;;31.50;1.00;;;;;;5053861;28;20202;-72
2021/06/14 06:17:43;;;;;;;18.30;17.50;;;31.30;1.00;;;;;;5070212;28;20663;-72
2021/06/14 06:20:11;;;;;;;18.90;18.00;;;31.30;1.00;;;;;;5073514;28;20916;-72
2021/06/14 06:22:38;;;;;;;19.90;18.53;;;31.40;1.00;;;;;;5073767;28;20420;-72
2021/06/14 06:25:25;;;;;;;20.40;18.87;;;31.40;1.00;;;;;;5073778;28;20416;-72
2021/06/14 06:27:51;;;;;;;19.43;18.50;;;31.30;1.10;;;;;;5073623;28;20937;-71
2021/06/14 06:30:22;;;;;;;19.50;18.57;;;31.30;1.10;;;;;;5073126;28;20431;-71
2021/06/14 06:32:48;;;;;;;19.33;18.47;;;31.20;1.20;;;;;;5073225;28;20212;-72
2021/06/14 06:35:14;;;;;;;20.50;19.60;;;31.40;1.00;;;;;;5073508;28;20780;-73
2021/06/14 06:37:40;;;;;;;20.10;19.20;;;31.90;1.00;;;;;;5073473;28;20464;-72
2021/06/14 06:40:07;;;;;;;21.17;19.90;;;32.00;1.00;;;;;;5071239;28;20276;-72
2021/06/14 06:42:33;;;;;;;19.67;18.60;;;31.90;1.00;;;;;;5053420;28;20608;-73
2021/06/14 06:44:58;;;;;;;20.20;19.03;;;31.60;1.00;;;;;;5060457;28;20439;-72
2021/06/14 06:47:24;;;;;;;19.77;18.87;;;31.90;1.00;;;;;;5069553;28;20509;-71
2021/06/14 06:49:49;;;;;;;19.30;18.33;;;32.30;1.00;;;;;;5067404;28;20207;-72
2021/06/14 06:52:15;;;;;;;19.33;18.50;;;32.30;1.00;;;;;;5060512;28;20618;-72
2021/06/14 06:54:41;;;;;;;19.43;18.63;;;32.50;1.00;;;;;;5068205;28;20726;-71
2021/06/14 06:57:07;;;;;;;19.57;18.77;;;32.60;1.00;;;;;;5066796;28;20206;-72
2021/06/14 06:59:33;;;;;;;20.23;19.27;;;32.90;1.00;;;;;;5066196;28;20276;-73
2021/06/14 07:01:58;;;;;;;20.63;19.53;;;32.50;1.00;;;;;;5067279;28;20983;-71
2021/06/14 07:04:24;;;;;;;21.20;19.93;;;32.30;1.00;;;;;;5068548;28;20263;-71
2021/06/14 07:06:50;;;;;;;19.60;18.70;;;32.50;1.00;;;;;;5069415;28;20192;-73
2021/06/14 07:09:16;;;;;;;20.20;19.30;;;32.50;1.00;;;;;;5067234;28;20255;-73
2021/06/14 07:11:41;;;;;;;19.60;18.80;;;33.00;1.00;;;;;;5056896;28;20433;-72
2021/06/14 07:14:07;;;;;;;20.63;19.70;;;33.10;1.00;;;;;;5061404;28;20259;-73
2021/06/14 07:16:34;;;;;;;20.73;19.73;;;33.40;1.00;;;;;;5063804;28;20194;-72
2021/06/14 07:19:00;;;;;;;19.60;18.80;;;33.00;1.00;;;;;;5048669;28;21009;-72
2021/06/14 07:21:27;;;;;;;20.20;19.10;;;33.40;1.00;;;;;;5049641;28;20440;-72
2021/06/14 07:23:58;;;;;;;19.87;19.00;;;33.50;1.00;;;;;;5055513;28;20500;-72
2021/06/14 07:26:24;;;;;;;20.03;19.17;;;33.70;1.00;;;;;;5048931;28;20425;-72
2021/06/14 07:28:50;;;;;;;21.23;19.93;;;33.70;1.00;;;;;;5048442;28;20413;-73
2021/06/14 07:31:17;;;;;;;20.60;19.70;;;33.60;1.00;;;;;;5048783;28;20193;-72
2021/06/14 07:33:43;;;;;;;21.00;20.13;;;33.60;1.00;;;;;;5048131;28;20532;-72
2021/06/14 07:36:11;;;;;;;21.37;20.17;;;33.30;1.00;;;;;;5048910;28;20425;-72
2021/06/14 07:38:37;;;;;;;21.13;20.13;;;32.30;1.00;;;;;;5052371;28;20828;-72
2021/06/14 07:41:09;;;;;;;20.53;19.67;;;32.30;1.00;;;;;;5051824;28;20707;-73
2021/06/14 07:43:34;;;;;;;22.17;20.87;;;32.80;1.40;;;;;;5052006;28;20444;-73
2021/06/14 07:46:01;;;;;;;21.20;20.30;;;33.40;1.00;;;;;;5052057;28;20409;-72
2021/06/14 07:48:26;;;;;;;21.63;20.63;;;33.50;1.00;;;;;;5051157;28;20197;-73
2021/06/14 07:50:54;;;;;;;21.40;20.50;;;33.70;1.00;;;;;;5051635;28;20806;-73
2021/06/14 07:53:20;;;;;;;22.93;21.83;;;33.20;1.00;;;;;;5052017;28;20194;-73
2021/06/14 07:55:47;;;;;;;21.50;20.60;;;33.00;1.00;;;;;;5050627;28;20436;-73
2021/06/14 07:58:15;;;;;;;21.30;20.40;;;33.40;1.00;;;;;;5051745;28;20201;-73
2021/06/14 08:00:41;;;;;;;22.60;20.83;;;33.70;1.00;;;;;;5052046;28;21036;-73
2021/06/14 08:03:20;;;;;;;21.37;20.47;;;33.60;1.00;;;;;;5051832;28;20812;-73
2021/06/14 08:05:46;;;;;;;21.90;20.80;;;33.70;1.00;;;;;;5052097;28;20424;-73
2021/06/14 08:08:12;;;;;;;22.70;21.60;;;33.80;1.00;;;;;;5051928;28;20772;-73
2021/06/14 08:10:38;;;;;;;22.00;20.57;;;34.00;1.00;;;;;;5050195;28;20265;-73
2021/06/14 08:13:04;;;;;;;21.93;21.00;;;34.40;1.00;;;;;;5051400;28;20997;-73
2021/06/14 08:15:30;;;;;;;21.50;20.57;;;34.80;1.00;;;;;;5050357;28;20179;-73
2021/06/14 08:18:15;;;;;;;22.20;21.10;;;35.00;1.00;;;;;;5051700;28;20268;-73
2021/06/14 08:21:45;;;;;;;21.57;20.67;;;34.90;1.00;;;;;;5051510;28;20413;-73
2021/06/14 08:26:24;;;;;;;22.27;21.27;;;34.50;1.00;;;;;;5051390;28;20412;-72
2021/06/14 08:28:50;;;;;;;21.90;20.90;;;33.30;1.00;;;;;;5050992;28;21020;-72
2021/06/14 08:31:16;;;;;;;22.83;21.47;;;32.80;1.00;;;;;;5049836;28;20506;-72
2021/06/14 08:33:42;;;;;;;22.00;21.07;;;32.30;1.00;;;;;;5049643;28;20484;-72
2021/06/14 08:36:08;;;;;;;22.73;21.70;;;32.50;1.00;;;;;;5051138;28;20175;-73
2021/06/14 08:38:33;;;;;;;22.20;21.20;;;32.80;1.00;;;;;;5051210;28;20210;-72
2021/06/14 08:40:59;;;;;;;22.13;21.13;;;32.50;1.00;;;;;;5051229;28;20186;-73
2021/06/14 08:43:25;;;;;;;21.73;20.80;;;32.50;1.00;;;;;;5050769;28;20252;-72
2021/06/14 08:45:51;;;;;;;22.20;21.30;;;32.80;1.00;;;;;;5054098;28;20523;-72
2021/06/14 08:48:18;;;;;;;21.90;20.90;;;33.00;1.00;;;;;;5050939;28;20201;-73
2021/06/14 08:50:47;;;;;;;21.50;20.60;;;32.40;1.00;;;;;;5050666;28;20421;-73
2021/06/14 08:53:12;;;;;;;21.63;20.73;;;32.80;1.00;;;;;;5050969;28;20582;-73
2021/06/14 08:55:38;;;;;;;22.47;21.47;;;32.40;1.00;;;;;;5051527;28;20892;-72
2021/06/14 08:58:04;;;;;;;22.53;21.33;;;31.20;1.00;;;;;;5050573;28;20830;-72
2021/06/14 09:00:33;;;;;;;22.47;21.57;;;30.60;1.00;;;;;;5065662;28;20624;-72
2021/06/14 09:02:59;;;;;;;22.37;21.37;;;29.70;1.00;;;;;;5068388;28;20952;-72
2021/06/14 09:05:28;;;;;;;22.93;21.93;;;29.10;1.00;;;;;;5070469;28;20439;-72
2021/06/14 09:08:00;;;;;;;21.83;20.83;;;28.40;1.40;;;;;;5069789;28;20662;-72
2021/06/14 09:10:31;;;;;;;21.77;20.87;;;28.10;1.00;;;;;;5054257;28;20444;-72
2021/06/14 09:13:09;;;;;;;22.10;21.20;;;27.80;2.60;;;;;;5062048;28;20543;-71
2021/06/14 09:15:35;;;;;;;22.13;21.23;;;27.70;1.60;;;;;;5053579;28;20451;-72
2021/06/14 09:18:00;;;;;;;22.07;20.97;;;27.40;2.20;;;;;;5049844;28;20837;-72
2021/06/14 09:20:27;;;;;;;22.77;21.30;;;27.10;1.90;;;;;;5055197;28;20177;-72
2021/06/14 09:22:54;;;;;;;21.53;20.53;;;26.50;2.50;;;;;;5063675;28;20182;-72
2021/06/14 09:25:21;;;;;;;21.33;20.40;;;26.40;2.40;;;;;;5067953;28;20955;-73
2021/06/14 09:27:51;;;;;;;21.97;21.00;;;26.50;2.50;;;;;;5057509;28;20794;-72
2021/06/14 09:30:25;;;;;;;21.63;20.63;;;26.30;2.30;;;;;;5050302;28;20813;-72
2021/06/14 09:33:05;;;;;;;20.87;20.00;;;25.90;4.00;;;;;;5050316;28;20464;-72
2021/06/14 09:35:38;;;;;;;21.20;20.30;;;25.70;3.90;;;;;;5049818;28;20508;-71
2021/06/14 09:38:14;;;;;;;20.67;19.63;;;25.80;6.00;;;;;;5050053;28;20449;-72
2021/06/14 09:40:44;;;;;;;20.90;19.90;;;25.90;4.70;;;;;;5050373;28;20401;-72
2021/06/14 09:43:22;;;;;;;21.67;20.57;;;26.10;6.20;;;;;;5070745;28;20447;-71
2021/06/14 09:45:48;;;;;;;21.27;20.07;;;26.20;5.00;;;;;;5074714;28;20798;-73
2021/06/14 09:48:22;;;;;;;20.30;19.50;;;25.70;4.80;;;;;;5073930;28;20442;-73
2021/06/14 09:50:53;;;;;;;21.60;20.63;;;25.80;3.40;;;;;;5065681;28;20174;-73
2021/06/14 09:53:21;;;;;;;21.57;20.37;;;25.80;2.10;;;;;;5072600;28;20452;-73
2021/06/14 09:55:50;;;;;;;21.47;20.57;;;25.90;2.90;;;;;;5078921;28;20443;-71
2021/06/14 09:58:26;;;;;;;20.57;19.77;;;26.20;3.20;;;;;;5080234;28;20472;-73
2021/06/14 10:00:56;;;;;;;20.80;19.93;;;26.20;2.30;;;;;;5080087;28;20417;-73
2021/06/14 10:03:26;;;;;;;21.50;20.43;;;26.20;4.00;;;;;;5080973;28;20835;-74
2021/06/14 10:05:54;;;;;;;22.10;20.90;;;26.20;2.90;;;;;;5075518;28;20441;-74
2021/06/14 10:08:32;;;;;;;22.10;21.00;;;26.20;2.90;;;;;;5078610;28;20439;-74
2021/06/14 10:11:12;;;;;;;21.47;20.30;;;26.40;2.40;;;;;;5078034;28;20428;-73
2021/06/14 10:13:43;;;;;;;21.20;20.40;;;26.50;2.50;;;;;;5072931;28;20972;-74
2021/06/14 10:16:15;;;;;;;21.37;20.37;;;26.60;2.90;;;;;;5077441;28;20435;-71
2021/06/14 10:18:53;;;;;;;21.97;20.77;;;26.60;1.60;;;;;;5068740;28;20559;-72
2021/06/14 10:21:29;;;;;;;21.83;20.83;;;26.70;2.60;;;;;;5062409;28;20424;-74
2021/06/14 10:23:55;;;;;;;20.43;19.63;;;26.80;3.50;;;;;;5061983;28;20521;-73
2021/06/14 10:26:23;;;;;;;22.70;21.80;;;26.60;2.80;;;;;;5061080;28;20530;-73
2021/06/14 10:28:49;;;;;;;20.50;19.53;;;26.40;1.00;;;;;;5065831;28;21034;-72
2021/06/14 10:31:15;;;;;;;21.30;20.30;;;26.40;3.90;;;;;;5061810;28;20460;-73
2021/06/14 10:33:42;;;;;;;22.40;21.07;;;26.50;3.30;;;;;;5083249;22;20645;-73
2021/06/14 10:36:09;;;;;;;20.80;20.00;;;26.70;1.00;;;;;;5064207;28;20495;-73
2021/06/14 10:38:38;;;;;;;21.87;20.87;;;26.80;1.30;;;;;;5063730;28;20469;-72
2021/06/14 10:41:04;;;;;;;20.63;19.73;;;27.00;1.30;;;;;;5064145;28;20427;-72
2021/06/14 10:43:31;;;;;;;20.73;19.93;;;27.10;1.40;;;;;;5073065;28;20436;-72
2021/06/14 10:45:58;;;;;;;22.37;20.90;;;27.30;2.30;;;;;;5053898;28;20239;-72
2021/06/14 10:48:27;;;;;;;20.87;19.97;;;27.40;1.00;;;;;;5058975;28;20467;-72
2021/06/14 10:50:54;;;;;;;20.57;19.77;;;27.50;1.40;;;;;;5072983;28;20407;-72
2021/06/14 10:53:25;;;;;;;21.40;20.60;;;27.40;1.00;;;;;;5072476;28;20462;-72
2021/06/14 10:55:51;;;;;;;21.27;20.37;;;27.50;1.00;;;;;;5072923;28;20404;-72
2021/06/14 10:58:18;;;;;;;21.10;20.20;;;27.60;2.00;;;;;;5053133;28;20953;-72
2021/06/14 11:00:44;;;;;;;20.97;20.10;;;27.60;2.40;;;;;;5052693;28;20906;-72
2021/06/14 11:03:10;;;;;;;20.87;20.07;;;27.60;2.20;;;;;;5054118;28;20498;-72
2021/06/14 11:05:47;;;;;;;21.00;20.10;;;27.60;3.00;;;;;;5073034;28;20182;-72
2021/06/14 11:08:18;;;;;;;20.80;20.00;;;27.70;1.10;;;;;;5072943;28;21040;-72
2021/06/14 11:11:00;;;;;;;20.83;20.00;;;27.70;1.00;;;;;;5072910;28;20979;-72
2021/06/14 11:13:26;;;;;;;21.30;20.40;;;27.50;2.00;;;;;;5072985;28;20439;-72
2021/06/14 11:15:57;;;;;;;21.47;20.47;;;27.40;2.10;;;;;;5072649;28;20427;-72
2021/06/14 11:18:26;;;;;;;21.23;20.30;;;27.30;1.80;;;;;;5072870;28;20412;-73
2021/06/14 11:21:05;;;;;;;21.30;20.47;;;27.30;2.60;;;;;;5072669;28;20436;-73
2021/06/14 11:23:31;;;;;;;20.97;20.10;;;27.40;1.30;;;;;;5072211;28;20424;-73
2021/06/14 11:25:58;;;;;;;20.60;19.80;;;27.50;1.20;;;;;;5058180;28;20558;-73
2021/06/14 11:28:42;;;;;;;21.47;20.47;;;27.60;1.00;;;;;;5052587;28;20628;-73
2021/06/14 11:31:23;;;;;;;22.00;21.10;;;27.40;1.30;;;;;;5052349;28;20405;-73
2021/06/14 11:33:50;;;;;;;20.27;19.47;;;26.90;1.20;;;;;;5054531;28;20457;-73
2021/06/14 11:36:31;;;;;;;20.50;19.70;;;26.90;2.30;;;;;;5072375;28;20404;-72
2021/06/14 11:38:58;;;;;;;21.90;20.90;;;26.90;1.10;;;;;;5071972;28;20407;-73
2021/06/14 11:41:29;;;;;;;21.90;20.90;;;27.10;2.10;;;;;;5072371;28;20500;-73
2021/06/14 11:44:17;;;;;;;21.30;20.13;;;27.40;1.00;;;;;;5072147;28;20526;-73
2021/06/14 11:46:43;;;;;;;20.70;19.90;;;27.50;1.00;;;;;;5072218;28;20972;-73
2021/06/14 11:49:10;;;;;;;21.70;20.80;;;27.50;1.80;;;;;;5071853;28;20409;-73
2021/06/14 11:51:36;;;;;;;21.90;20.90;;;27.70;1.00;;;;;;5072065;28;20437;-73
2021/06/14 11:54:03;;;;;;;22.20;21.20;;;27.70;1.00;;;;;;5070333;28;20437;-74
2021/06/14 11:56:33;;;;;;;21.47;20.47;;;27.70;1.00;;;;;;5072099;28;20784;-73
2021/06/14 11:58:59;;;;;;;20.97;20.17;;;27.70;1.20;;;;;;5071656;28;20833;-73
2021/06/14 12:01:31;;;;;;;21.83;20.60;;;27.70;1.00;;;;;;5070549;28;20472;-74
2021/06/14 12:03:58;;;;;;;22.20;21.10;;;27.60;1.00;;;;;;5070867;28;20933;-74
2021/06/14 12:06:27;;;;;;;21.37;20.47;;;27.60;1.00;;;;;;5071965;28;20483;-74
2021/06/14 12:09:12;;;;;;;22.50;21.20;;;27.60;1.00;;;;;;5071514;28;20967;-73
2021/06/14 12:11:38;;;;;;;22.00;20.80;;;27.60;1.00;;;;;;5071799;28;20412;-73
2021/06/14 12:14:32;;;;;;;20.63;19.80;;;27.60;1.00;;;;;;5071228;28;20459;-73
2021/06/14 12:17:06;;;;;;;21.13;20.23;;;27.40;1.00;;;;;;5070292;28;20327;-73
2021/06/14 12:19:34;;;;;;;20.57;19.77;;;27.20;1.00;;;;;;5071370;28;20482;-74
2021/06/14 12:22:04;;;;;;;20.47;19.67;;;27.20;1.00;;;;;;5071661;28;20404;-72
2021/06/14 12:24:33;;;;;;;20.50;19.70;;;27.20;1.00;;;;;;5068731;28;20444;-73
2021/06/14 12:27:07;;;;;;;19.90;19.20;;;27.40;1.70;;;;;;5051266;28;20413;-74
2021/06/14 12:29:34;;;;;;;20.90;20.00;;;27.50;2.10;;;;;;5065810;28;20511;-73
2021/06/14 12:32:07;;;;;;;20.63;19.83;;;27.70;1.30;;;;;;5071512;28;20457;-73
2021/06/14 12:34:38;;;;;;;21.57;20.53;;;27.90;2.30;;;;;;5052555;28;20458;-73
2021/06/14 12:37:07;;;;;;;20.70;19.90;;;28.10;2.00;;;;;;5051356;28;20452;-73
2021/06/14 12:39:33;;;;;;;20.70;19.90;;;28.00;1.00;;;;;;5061878;28;20446;-73
2021/06/14 12:42:00;;;;;;;20.50;19.70;;;27.90;2.20;;;;;;5071273;28;20431;-73
2021/06/14 12:44:26;;;;;;;20.37;19.57;;;28.00;1.40;;;;;;5070157;28;20451;-73
2021/06/14 12:46:51;;;;;;;20.67;19.67;;;28.10;2.20;;;;;;5071239;28;20407;-73
2021/06/14 12:49:28;;;;;;;20.80;19.90;;;28.20;1.00;;;;;;5065595;28;20182;-74
2021/06/14 12:51:54;;;;;;;20.50;19.60;;;28.20;1.00;;;;;;5066977;28;20541;-73